sensor_id;sensor_type;location;lat;lon;timestamp;pressure;altitude;pressure_sealevel;temperature;humidity
55317;BME280;41178;48.956;8.130;2023-07-31T00:02:49;99628.81;;;19.45;44.49
55317;BME280;41178;48.956;8.130;2023-07-31T00:07:51;99680.16;;;19.00;44.85
55317;BME280;41178;48.956;8.130;2023-07-31T00:12:53;99685.34;;;18.61;45.27
55317;BME280;41178;48.956;8.130;2023-07-31T00:17:54;99709.81;;;18.14;46.21
55317;BME280;41178;48.956;8.130;2023-07-31T00:22:56;99701.66;;;18.26;46.02
55317;BME280;41178;48.956;8.130;2023-07-31T00:27:58;99583.81;;;19.27;45.32
55317;BME280;41178;48.956;8.130;2023-07-31T00:33:00;99659.75;;;18.28;46.30
55317;BME280;41178;48.956;8.130;2023-07-31T00:38:02;99660.72;;;19.20;45.03
55317;BME280;41178;48.956;8.130;2023-07-31T00:43:03;99687.91;;;18.16;46.63
55317;BME280;41178;48.956;8.130;2023-07-31T00:48:05;99643.28;;;18.06;47.29
55317;BME280;41178;48.956;8.130;2023-07-31T00:53:08;99634.34;;;18.06;47.96
55317;BME280;41178;48.956;8.130;2023-07-31T00:58:10;99648.97;;;17.81;48.69
55317;BME280;41178;48.956;8.130;2023-07-31T01:03:12;99612.44;;;18.07;48.20
55317;BME280;41178;48.956;8.130;2023-07-31T01:13:25;99638.91;;;18.41;47.45
55317;BME280;41178;48.956;8.130;2023-07-31T01:18:27;99618.59;;;17.67;49.07
55317;BME280;41178;48.956;8.130;2023-07-31T01:23:44;99662.38;;;17.10;49.92
55317;BME280;41178;48.956;8.130;2023-07-31T01:28:56;99612.56;;;17.18;50.52
55317;BME280;41178;48.956;8.130;2023-07-31T01:34:03;99614.13;;;17.73;48.85
55317;BME280;41178;48.956;8.130;2023-07-31T01:39:05;99602.47;;;17.49;49.30
55317;BME280;41178;48.956;8.130;2023-07-31T01:44:07;99621.75;;;17.41;49.56
55317;BME280;41178;48.956;8.130;2023-07-31T01:49:08;99678.91;;;16.84;49.99
55317;BME280;41178;48.956;8.130;2023-07-31T01:54:10;99593.16;;;17.21;50.05
55317;BME280;41178;48.956;8.130;2023-07-31T01:59:12;99611.88;;;16.92;50.16
55317;BME280;41178;48.956;8.130;2023-07-31T02:04:14;99603.31;;;16.95;50.40
55317;BME280;41178;48.956;8.130;2023-07-31T02:09:16;99554.00;;;17.47;49.77
55317;BME280;41178;48.956;8.130;2023-07-31T02:14:17;99582.47;;;17.38;49.96
55317;BME280;41178;48.956;8.130;2023-07-31T02:19:19;99577.06;;;17.26;50.43
55317;BME280;41178;48.956;8.130;2023-07-31T02:24:21;99573.16;;;17.22;50.46
55317;BME280;41178;48.956;8.130;2023-07-31T02:29:22;99632.66;;;16.61;50.65
55317;BME280;41178;48.956;8.130;2023-07-31T02:34:24;99554.00;;;17.24;49.97
55317;BME280;41178;48.956;8.130;2023-07-31T02:39:26;99585.09;;;16.91;50.70
55317;BME280;41178;48.956;8.130;2023-07-31T02:44:27;99627.88;;;16.64;50.82
55317;BME280;41178;48.956;8.130;2023-07-31T02:49:29;99564.22;;;16.98;50.41
55317;BME280;41178;48.956;8.130;2023-07-31T02:54:31;99631.13;;;16.54;50.69
55317;BME280;41178;48.956;8.130;2023-07-31T02:59:32;99607.28;;;17.23;49.07
55317;BME280;41178;48.956;8.130;2023-07-31T03:04:34;99613.38;;;17.30;49.37
55317;BME280;41178;48.956;8.130;2023-07-31T03:09:36;99678.50;;;16.68;50.09
55317;BME280;41178;48.956;8.130;2023-07-31T03:14:37;99566.34;;;17.08;50.16
55317;BME280;41178;48.956;8.130;2023-07-31T03:19:39;99604.31;;;17.13;49.31
55317;BME280;41178;48.956;8.130;2023-07-31T03:24:41;99650.56;;;17.47;48.28
55317;BME280;41178;48.956;8.130;2023-07-31T03:29:42;99627.13;;;17.29;49.13
55317;BME280;41178;48.956;8.130;2023-07-31T03:34:44;99595.66;;;17.34;49.28
55317;BME280;41178;48.956;8.130;2023-07-31T03:39:46;99686.19;;;16.34;50.53
55317;BME280;41178;48.956;8.130;2023-07-31T03:44:48;99651.09;;;16.83;49.88
55317;BME280;41178;48.956;8.130;2023-07-31T03:49:49;99631.97;;;17.39;49.13
55317;BME280;41178;48.956;8.130;2023-07-31T03:54:51;99622.09;;;17.32;49.33
55317;BME280;41178;48.956;8.130;2023-07-31T03:59:53;99657.44;;;17.19;49.29
55317;BME280;41178;48.956;8.130;2023-07-31T04:04:54;99592.34;;;17.44;49.56
55317;BME280;41178;48.956;8.130;2023-07-31T04:09:57;99654.47;;;16.78;50.45
55317;BME280;41178;48.956;8.130;2023-07-31T04:14:59;99671.91;;;16.09;52.05
55317;BME280;41178;48.956;8.130;2023-07-31T04:20:01;99594.84;;;16.61;51.47
55317;BME280;41178;48.956;8.130;2023-07-31T04:25:02;99667.13;;;16.29;51.79
55317;BME280;41178;48.956;8.130;2023-07-31T04:30:05;99633.47;;;16.50;51.57
55317;BME280;41178;48.956;8.130;2023-07-31T04:35:07;99627.00;;;16.14;52.48
55317;BME280;41178;48.956;8.130;2023-07-31T04:40:09;99563.81;;;16.83;51.66
55317;BME280;41178;48.956;8.130;2023-07-31T04:45:11;99576.88;;;16.55;51.89
55317;BME280;41178;48.956;8.130;2023-07-31T04:50:12;99650.66;;;15.75;53.68
55317;BME280;41178;48.956;8.130;2023-07-31T04:55:14;99581.56;;;16.60;52.00
55317;BME280;41178;48.956;8.130;2023-07-31T05:00:16;99601.81;;;16.39;52.46
55317;BME280;41178;48.956;8.130;2023-07-31T05:05:18;99657.31;;;15.73;53.45
55317;BME280;41178;48.956;8.130;2023-07-31T05:10:20;99557.56;;;16.70;52.31
55317;BME280;41178;48.956;8.130;2023-07-31T05:15:21;99612.16;;;16.42;52.45
55317;BME280;41178;48.956;8.130;2023-07-31T05:20:23;99601.91;;;16.32;52.39
55317;BME280;41178;48.956;8.130;2023-07-31T05:25:25;99652.06;;;16.21;52.47
55317;BME280;41178;48.956;8.130;2023-07-31T05:30:27;99608.63;;;17.02;51.37
55317;BME280;41178;48.956;8.130;2023-07-31T05:35:30;99566.34;;;17.08;51.62
55317;BME280;41178;48.956;8.130;2023-07-31T05:40:33;99646.00;;;16.75;51.96
55317;BME280;41178;48.956;8.130;2023-07-31T05:45:35;99613.94;;;17.21;51.00
55317;BME280;41178;48.956;8.130;2023-07-31T05:50:38;99618.25;;;17.64;50.42
55317;BME280;41178;48.956;8.130;2023-07-31T05:55:42;99687.63;;;17.04;50.76
55317;BME280;41178;48.956;8.130;2023-07-31T06:00:44;99598.25;;;17.53;50.53
55317;BME280;41178;48.956;8.130;2023-07-31T06:05:46;99574.34;;;17.97;49.93
55317;BME280;41178;48.956;8.130;2023-07-31T06:10:48;99730.38;;;16.77;51.26
55317;BME280;41178;48.956;8.130;2023-07-31T06:15:49;99703.56;;;17.24;50.43
55317;BME280;41178;48.956;8.130;2023-07-31T06:20:52;99630.34;;;17.61;50.48
55317;BME280;41178;48.956;8.130;2023-07-31T06:25:55;99664.13;;;17.05;51.44
55317;BME280;41178;48.956;8.130;2023-07-31T06:30:58;99633.41;;;17.53;50.33
55317;BME280;41178;48.956;8.130;2023-07-31T06:36:00;99603.41;;;18.02;49.72
55317;BME280;41178;48.956;8.130;2023-07-31T06:41:01;99606.53;;;18.22;49.59
55317;BME280;41178;48.956;8.130;2023-07-31T06:46:06;99610.03;;;17.70;50.35
55317;BME280;41178;48.956;8.130;2023-07-31T06:51:08;99639.97;;;17.45;50.90
55317;BME280;41178;48.956;8.130;2023-07-31T06:56:10;99682.72;;;17.13;50.69
55317;BME280;41178;48.956;8.130;2023-07-31T07:01:12;99657.81;;;17.88;49.34
55317;BME280;41178;48.956;8.130;2023-07-31T07:06:14;99580.84;;;18.25;49.27
55317;BME280;41178;48.956;8.130;2023-07-31T07:11:15;99642.59;;;17.87;49.89
55317;BME280;41178;48.956;8.130;2023-07-31T07:16:17;99688.06;;;17.31;50.23
55317;BME280;41178;48.956;8.130;2023-07-31T07:21:19;99659.00;;;18.45;48.64
55317;BME280;41178;48.956;8.130;2023-07-31T07:26:21;99703.66;;;17.60;49.55
55317;BME280;41178;48.956;8.130;2023-07-31T07:31:22;99601.78;;;18.70;48.89
55317;BME280;41178;48.956;8.130;2023-07-31T07:36:24;99616.94;;;18.14;49.21
55317;BME280;41178;48.956;8.130;2023-07-31T07:41:26;99554.53;;;18.95;47.92
55317;BME280;41178;48.956;8.130;2023-07-31T07:46:28;99598.00;;;19.34;47.99
55317;BME280;41178;48.956;8.130;2023-07-31T07:51:30;99692.63;;;18.20;48.90
55317;BME280;41178;48.956;8.130;2023-07-31T07:56:33;99567.09;;;19.52;47.11
55317;BME280;41178;48.956;8.130;2023-07-31T08:01:34;99580.06;;;19.50;47.01
55317;BME280;41178;48.956;8.130;2023-07-31T08:06:37;99637.84;;;18.99;47.25
55317;BME280;41178;48.956;8.130;2023-07-31T08:11:39;99597.19;;;19.67;46.94
55317;BME280;41178;48.956;8.130;2023-07-31T08:16:41;99617.09;;;19.39;47.47
55317;BME280;41178;48.956;8.130;2023-07-31T08:21:43;99598.66;;;19.07;47.83
55317;BME280;41178;48.956;8.130;2023-07-31T08:26:45;99637.69;;;18.77;47.79
55317;BME280;41178;48.956;8.130;2023-07-31T08:31:47;99598.84;;;18.89;47.93
55317;BME280;41178;48.956;8.130;2023-07-31T08:36:49;99556.59;;;20.00;46.38
55317;BME280;41178;48.956;8.130;2023-07-31T08:41:50;99624.31;;;19.50;47.10
55317;BME280;41178;48.956;8.130;2023-07-31T08:46:52;99625.44;;;19.04;47.94
55317;BME280;41178;48.956;8.130;2023-07-31T08:51:55;99608.69;;;19.74;46.45
55317;BME280;41178;48.956;8.130;2023-07-31T08:57:00;99550.13;;;20.23;46.04
55317;BME280;41178;48.956;8.130;2023-07-31T09:02:05;99601.03;;;19.37;46.00
55317;BME280;41178;48.956;8.130;2023-07-31T09:07:08;99525.91;;;20.76;44.37
55317;BME280;41178;48.956;8.130;2023-07-31T09:12:10;99633.34;;;19.22;45.32
55317;BME280;41178;48.956;8.130;2023-07-31T09:17:12;99549.53;;;20.48;44.77
55317;BME280;41178;48.956;8.130;2023-07-31T09:22:14;99518.03;;;19.98;44.52
55317;BME280;41178;48.956;8.130;2023-07-31T09:27:15;99591.56;;;19.74;43.91
55317;BME280;41178;48.956;8.130;2023-07-31T09:32:17;99585.00;;;19.70;44.38
55317;BME280;41178;48.956;8.130;2023-07-31T09:37:19;99552.69;;;20.89;43.62
55317;BME280;41178;48.956;8.130;2023-07-31T09:42:26;99570.94;;;19.95;43.88
55317;BME280;41178;48.956;8.130;2023-07-31T09:47:29;99558.06;;;20.29;44.16
55317;BME280;41178;48.956;8.130;2023-07-31T09:52:32;99520.38;;;20.65;43.54
55317;BME280;41178;48.956;8.130;2023-07-31T09:57:34;99508.47;;;20.72;43.66
55317;BME280;41178;48.956;8.130;2023-07-31T10:02:38;99523.94;;;20.71;42.87
55317;BME280;41178;48.956;8.130;2023-07-31T10:07:43;99468.34;;;21.27;43.17
55317;BME280;41178;48.956;8.130;2023-07-31T10:12:48;99532.06;;;20.39;43.95
55317;BME280;41178;48.956;8.130;2023-07-31T10:17:53;99510.28;;;20.61;43.37
55317;BME280;41178;48.956;8.130;2023-07-31T10:22:56;99507.13;;;20.74;43.72
55317;BME280;41178;48.956;8.130;2023-07-31T10:27:58;99503.69;;;20.52;43.89
55317;BME280;41178;48.956;8.130;2023-07-31T10:33:02;99504.09;;;20.38;43.92
55317;BME280;41178;48.956;8.130;2023-07-31T10:38:12;99437.97;;;21.40;43.37
55317;BME280;41178;48.956;8.130;2023-07-31T10:43:24;99484.34;;;20.21;44.87
55317;BME280;41178;48.956;8.130;2023-07-31T10:48:33;99471.91;;;20.90;44.30
55317;BME280;41178;48.956;8.130;2023-07-31T10:53:35;99472.66;;;20.80;43.75
55317;BME280;41178;48.956;8.130;2023-07-31T10:58:37;99428.06;;;21.82;43.38
55317;BME280;41178;48.956;8.130;2023-07-31T11:06:20;99459.63;;;18.78;47.69
55317;BME280;41178;48.956;8.130;2023-07-31T11:11:21;99369.94;;;20.49;46.00
55317;BME280;41178;48.956;8.130;2023-07-31T11:16:24;99358.75;;;20.46;45.58
55317;BME280;41178;48.956;8.130;2023-07-31T11:21:28;99373.44;;;20.45;46.34
55317;BME280;41178;48.956;8.130;2023-07-31T11:26:29;99342.19;;;20.90;45.31
55317;BME280;41178;48.956;8.130;2023-07-31T11:31:32;99406.09;;;20.18;46.84
55317;BME280;41178;48.956;8.130;2023-07-31T11:36:40;99417.91;;;19.79;46.07
55317;BME280;41178;48.956;8.130;2023-07-31T11:41:42;99407.63;;;19.37;46.64
55317;BME280;41178;48.956;8.130;2023-07-31T11:46:44;99370.22;;;19.88;46.55
55317;BME280;41178;48.956;8.130;2023-07-31T11:51:46;99383.47;;;20.12;46.55
55317;BME280;41178;48.956;8.130;2023-07-31T11:56:48;99352.41;;;20.30;46.46
55317;BME280;41178;48.956;8.130;2023-07-31T12:01:51;99393.78;;;20.10;45.44
55317;BME280;41178;48.956;8.130;2023-07-31T12:06:55;99347.59;;;20.80;45.05
55317;BME280;41178;48.956;8.130;2023-07-31T12:11:59;99321.66;;;21.20;45.35
55317;BME280;41178;48.956;8.130;2023-07-31T12:17:04;99434.25;;;20.39;44.40
55317;BME280;41178;48.956;8.130;2023-07-31T12:22:13;99371.34;;;21.53;44.54
55317;BME280;41178;48.956;8.130;2023-07-31T12:27:15;99371.19;;;20.74;44.84
55317;BME280;41178;48.956;8.130;2023-07-31T12:32:23;99349.63;;;21.05;44.54
55317;BME280;41178;48.956;8.130;2023-07-31T12:37:25;99359.81;;;21.35;44.09
55317;BME280;41178;48.956;8.130;2023-07-31T12:42:27;99369.06;;;20.81;44.60
55317;BME280;41178;48.956;8.130;2023-07-31T12:47:29;99339.25;;;21.70;44.46
55317;BME280;41178;48.956;8.130;2023-07-31T12:52:31;99340.13;;;21.08;44.72
55317;BME280;41178;48.956;8.130;2023-07-31T12:57:33;99368.53;;;20.79;45.37
55317;BME280;41178;48.956;8.130;2023-07-31T13:02:37;99362.06;;;20.91;44.40
55317;BME280;41178;48.956;8.130;2023-07-31T13:07:40;99344.63;;;20.81;45.11
55317;BME280;41178;48.956;8.130;2023-07-31T13:12:41;99298.91;;;21.47;44.80
55317;BME280;41178;48.956;8.130;2023-07-31T13:17:43;99308.16;;;21.46;44.71
55317;BME280;41178;48.956;8.130;2023-07-31T13:22:45;99297.75;;;21.27;44.53
55317;BME280;41178;48.956;8.130;2023-07-31T13:27:47;99256.16;;;21.37;44.29
55317;BME280;41178;48.956;8.130;2023-07-31T13:32:49;99312.53;;;21.47;44.44
55317;BME280;41178;48.956;8.130;2023-07-31T13:37:51;99276.09;;;21.68;44.87
55317;BME280;41178;48.956;8.130;2023-07-31T13:42:52;99261.63;;;21.47;44.26
55317;BME280;41178;48.956;8.130;2023-07-31T13:47:55;99301.13;;;21.81;43.94
55317;BME280;41178;48.956;8.130;2023-07-31T13:52:57;99274.47;;;22.24;43.53
55317;BME280;41178;48.956;8.130;2023-07-31T13:57:59;99239.88;;;22.09;44.85
55317;BME280;41178;48.956;8.130;2023-07-31T14:03:01;99250.22;;;21.66;44.33
55317;BME280;41178;48.956;8.130;2023-07-31T14:08:03;99284.56;;;22.03;43.71
55317;BME280;41178;48.956;8.130;2023-07-31T14:13:05;99315.25;;;21.52;43.97
55317;BME280;41178;48.956;8.130;2023-07-31T14:18:06;99290.78;;;21.62;44.03
55317;BME280;41178;48.956;8.130;2023-07-31T14:23:08;99292.16;;;21.70;44.86
55317;BME280;41178;48.956;8.130;2023-07-31T14:28:10;99273.63;;;21.56;44.01
55317;BME280;41178;48.956;8.130;2023-07-31T14:33:12;99219.34;;;22.58;42.10
55317;BME280;41178;48.956;8.130;2023-07-31T14:38:14;99257.00;;;22.25;42.87
55317;BME280;41178;48.956;8.130;2023-07-31T14:43:15;99260.59;;;21.94;43.59
55317;BME280;41178;48.956;8.130;2023-07-31T14:48:17;99214.72;;;22.43;42.90
55317;BME280;41178;48.956;8.130;2023-07-31T14:53:19;99216.41;;;22.23;43.30
55317;BME280;41178;48.956;8.130;2023-07-31T14:58:20;99219.69;;;22.25;42.59
55317;BME280;41178;48.956;8.130;2023-07-31T15:05:20;99115.34;;;20.65;45.93
55317;BME280;41178;48.956;8.130;2023-07-31T15:10:21;99165.53;;;21.16;45.10
55317;BME280;41178;48.956;8.130;2023-07-31T15:15:23;99138.56;;;21.76;44.71
55317;BME280;41178;48.956;8.130;2023-07-31T15:20:25;99180.69;;;20.91;46.03
55317;BME280;41178;48.956;8.130;2023-07-31T15:25:27;99129.31;;;21.20;45.73
55317;BME280;41178;48.956;8.130;2023-07-31T15:30:29;99114.63;;;21.32;45.58
55317;BME280;41178;48.956;8.130;2023-07-31T15:35:31;99129.59;;;21.14;45.76
55317;BME280;41178;48.956;8.130;2023-07-31T15:40:32;99115.97;;;21.09;46.48
55317;BME280;41178;48.956;8.130;2023-07-31T15:45:34;99195.53;;;20.15;48.14
55317;BME280;41178;48.956;8.130;2023-07-31T15:50:36;99150.69;;;20.60;48.96
55317;BME280;41178;48.956;8.130;2023-07-31T15:55:38;99102.84;;;20.69;49.36
55317;BME280;41178;48.956;8.130;2023-07-31T16:00:39;99098.84;;;20.88;49.36
55317;BME280;41178;48.956;8.130;2023-07-31T16:05:41;99098.78;;;20.62;49.85
55317;BME280;41178;48.956;8.130;2023-07-31T16:10:43;99149.69;;;20.82;49.85
55317;BME280;41178;48.956;8.130;2023-07-31T16:15:44;99079.25;;;21.73;49.74
55317;BME280;41178;48.956;8.130;2023-07-31T16:20:46;99074.03;;;21.87;48.66
55317;BME280;41178;48.956;8.130;2023-07-31T16:25:48;99089.34;;;21.21;49.55
55317;BME280;41178;48.956;8.130;2023-07-31T16:30:50;99089.91;;;21.44;48.88
55317;BME280;41178;48.956;8.130;2023-07-31T16:35:52;99105.09;;;20.98;49.28
55317;BME280;41178;48.956;8.130;2023-07-31T16:40:53;99070.03;;;21.12;48.85
55317;BME280;41178;48.956;8.130;2023-07-31T16:45:56;99071.84;;;21.94;47.43
55317;BME280;41178;48.956;8.130;2023-07-31T16:50:58;99126.06;;;21.08;49.26
55317;BME280;41178;48.956;8.130;2023-07-31T16:56:00;99089.28;;;21.83;47.78
55317;BME280;41178;48.956;8.130;2023-07-31T17:01:02;99084.94;;;21.76;48.01
55317;BME280;41178;48.956;8.130;2023-07-31T17:06:04;99056.09;;;21.70;47.65
55317;BME280;41178;48.956;8.130;2023-07-31T17:11:06;99055.63;;;21.37;48.63
55317;BME280;41178;48.956;8.130;2023-07-31T17:16:08;99138.78;;;20.13;50.04
55317;BME280;41178;48.956;8.130;2023-07-31T17:21:10;99076.56;;;20.91;49.38
55317;BME280;41178;48.956;8.130;2023-07-31T17:26:11;99059.97;;;21.18;48.42
55317;BME280;41178;48.956;8.130;2023-07-31T17:31:14;99080.63;;;21.03;48.73
55317;BME280;41178;48.956;8.130;2023-07-31T17:36:16;99097.50;;;21.26;48.13
55317;BME280;41178;48.956;8.130;2023-07-31T17:41:18;99083.09;;;21.51;48.52
55317;BME280;41178;48.956;8.130;2023-07-31T17:46:19;99179.84;;;19.47;51.29
55317;BME280;41178;48.956;8.130;2023-07-31T17:51:21;99069.94;;;20.61;50.84
55317;BME280;41178;48.956;8.130;2023-07-31T17:56:23;99102.75;;;20.34;52.59
55317;BME280;41178;48.956;8.130;2023-07-31T18:01:25;99110.06;;;19.43;54.53
55317;BME280;41178;48.956;8.130;2023-07-31T18:06:27;99081.47;;;19.30;56.25
55317;BME280;41178;48.956;8.130;2023-07-31T18:11:31;99087.59;;;19.47;55.06
55317;BME280;41178;48.956;8.130;2023-07-31T18:16:33;99041.84;;;20.19;53.52
55317;BME280;41178;48.956;8.130;2023-07-31T18:21:35;99067.53;;;20.75;51.89
55317;BME280;41178;48.956;8.130;2023-07-31T18:26:38;99096.94;;;20.88;51.58
55317;BME280;41178;48.956;8.130;2023-07-31T18:31:40;99121.13;;;20.16;52.54
55317;BME280;41178;48.956;8.130;2023-07-31T18:36:42;99145.88;;;19.45;54.23
55317;BME280;41178;48.956;8.130;2023-07-31T18:41:44;99114.31;;;19.01;55.03
55317;BME280;41178;48.956;8.130;2023-07-31T18:46:45;99098.03;;;19.61;53.84
55317;BME280;41178;48.956;8.130;2023-07-31T18:51:47;99091.19;;;19.20;54.79
55317;BME280;41178;48.956;8.130;2023-07-31T18:56:49;99066.69;;;19.10;54.53
55317;BME280;41178;48.956;8.130;2023-07-31T19:01:51;99103.84;;;19.42;53.06
55317;BME280;41178;48.956;8.130;2023-07-31T19:06:53;99099.22;;;19.10;53.30
55317;BME280;41178;48.956;8.130;2023-07-31T19:11:55;99131.91;;;18.71;53.55
55317;BME280;41178;48.956;8.130;2023-07-31T19:16:56;99106.91;;;19.18;52.74
55317;BME280;41178;48.956;8.130;2023-07-31T19:21:58;99106.19;;;19.66;52.10
55317;BME280;41178;48.956;8.130;2023-07-31T19:27:00;99137.72;;;19.39;52.69
55317;BME280;41178;48.956;8.130;2023-07-31T19:32:01;99091.34;;;19.84;52.34
55317;BME280;41178;48.956;8.130;2023-07-31T19:37:03;99123.38;;;19.44;53.17
55317;BME280;41178;48.956;8.130;2023-07-31T19:42:05;99161.75;;;19.58;52.48
55317;BME280;41178;48.956;8.130;2023-07-31T19:47:07;99152.31;;;19.06;54.08
55317;BME280;41178;48.956;8.130;2023-07-31T19:52:09;99116.91;;;19.50;53.76
55317;BME280;41178;48.956;8.130;2023-07-31T19:57:10;99154.63;;;18.70;55.90
55317;BME280;41178;48.956;8.130;2023-07-31T20:02:12;99079.28;;;19.22;55.95
55317;BME280;41178;48.956;8.130;2023-07-31T20:07:14;99089.94;;;19.33;55.37
55317;BME280;41178;48.956;8.130;2023-07-31T20:12:15;99108.81;;;19.23;55.49
55317;BME280;41178;48.956;8.130;2023-07-31T20:17:17;99014.47;;;19.68;55.34
55317;BME280;41178;48.956;8.130;2023-07-31T20:22:19;99110.47;;;18.70;56.69
55317;BME280;41178;48.956;8.130;2023-07-31T20:27:21;99077.28;;;18.57;57.44
55317;BME280;41178;48.956;8.130;2023-07-31T20:32:23;99053.56;;;18.97;56.16
55317;BME280;41178;48.956;8.130;2023-07-31T20:37:26;99033.31;;;18.77;57.07
55317;BME280;41178;48.956;8.130;2023-07-31T20:42:28;99059.13;;;19.12;55.28
55317;BME280;41178;48.956;8.130;2023-07-31T20:47:29;99021.59;;;19.42;54.64
55317;BME280;41178;48.956;8.130;2023-07-31T20:52:31;99050.06;;;18.96;55.04
55317;BME280;41178;48.956;8.130;2023-07-31T20:57:33;99036.31;;;19.08;54.77
55317;BME280;41178;48.956;8.130;2023-07-31T21:02:35;99012.84;;;18.92;55.21
55317;BME280;41178;48.956;8.130;2023-07-31T21:07:38;98977.41;;;19.41;54.38
55317;BME280;41178;48.956;8.130;2023-07-31T21:12:40;99016.00;;;19.11;55.03
55317;BME280;41178;48.956;8.130;2023-07-31T21:17:42;99017.84;;;19.05;54.94
55317;BME280;41178;48.956;8.130;2023-07-31T21:22:44;99003.25;;;18.52;56.13
55317;BME280;41178;48.956;8.130;2023-07-31T21:27:47;99002.72;;;18.00;57.22
55317;BME280;41178;48.956;8.130;2023-07-31T21:32:49;98987.78;;;17.76;58.30
55317;BME280;41178;48.956;8.130;2023-07-31T21:37:54;98993.34;;;18.62;56.07
55317;BME280;41178;48.956;8.130;2023-07-31T21:42:56;99039.19;;;18.20;56.67
55317;BME280;41178;48.956;8.130;2023-07-31T21:47:58;98939.72;;;18.97;56.19
55317;BME280;41178;48.956;8.130;2023-07-31T21:53:00;98965.81;;;19.08;55.08
55317;BME280;41178;48.956;8.130;2023-07-31T21:58:02;98933.06;;;19.73;53.67
55317;BME280;41178;48.956;8.130;2023-07-31T22:03:03;98878.72;;;19.52;55.16
55317;BME280;41178;48.956;8.130;2023-07-31T22:08:05;98892.41;;;19.88;53.68
55317;BME280;41178;48.956;8.130;2023-07-31T22:13:07;98954.34;;;18.63;56.46
55317;BME280;41178;48.956;8.130;2023-07-31T22:18:09;98857.13;;;20.09;54.25
55317;BME280;41178;48.956;8.130;2023-07-31T22:23:10;98923.00;;;18.73;56.97
55317;BME280;41178;48.956;8.130;2023-07-31T22:28:12;98832.69;;;19.88;54.84
55317;BME280;41178;48.956;8.130;2023-07-31T22:33:21;98815.06;;;20.06;54.48
55317;BME280;41178;48.956;8.130;2023-07-31T22:38:23;98819.38;;;19.76;55.14
55317;BME280;41178;48.956;8.130;2023-07-31T22:43:25;98913.41;;;18.60;57.06
55317;BME280;41178;48.956;8.130;2023-07-31T22:48:27;98840.00;;;19.04;56.68
55317;BME280;41178;48.956;8.130;2023-07-31T22:53:28;98855.81;;;18.80;57.17
55317;BME280;41178;48.956;8.130;2023-07-31T22:58:34;98864.00;;;18.48;58.24
55317;BME280;41178;48.956;8.130;2023-07-31T23:03:36;98870.31;;;17.71;60.42
55317;BME280;41178;48.956;8.130;2023-07-31T23:08:38;98812.97;;;18.29;59.62
55317;BME280;41178;48.956;8.130;2023-07-31T23:13:39;98832.50;;;18.79;57.72
55317;BME280;41178;48.956;8.130;2023-07-31T23:18:42;98805.03;;;18.22;59.75
55317;BME280;41178;48.956;8.130;2023-07-31T23:23:44;98818.19;;;18.41;59.11
55317;BME280;41178;48.956;8.130;2023-07-31T23:28:46;98833.63;;;18.13;60.30
55317;BME280;41178;48.956;8.130;2023-07-31T23:33:47;98860.19;;;17.62;60.95
55317;BME280;41178;48.956;8.130;2023-07-31T23:38:49;98795.94;;;18.06;61.06
55317;BME280;41178;48.956;8.130;2023-07-31T23:43:53;98827.53;;;18.65;59.01
55317;BME280;41178;48.956;8.130;2023-07-31T23:48:55;98796.13;;;19.23;57.76
55317;BME280;41178;48.956;8.130;2023-07-31T23:53:56;98752.88;;;19.69;56.88
55317;BME280;41178;48.956;8.130;2023-07-31T23:58:58;98758.63;;;18.94;58.36
